首页
METAR-TAF:

METAR-TAF

机场 :

埃尔多拉多国际机场

波哥大, 哥伦比亚

纬度: 04-43N, 经度: 074-09W, 海拔: 2547米

当前天气观测

该预报发布于24分钟前的18:00 UTC
风速14节,风向
温度 19°C
湿度 52%
气压 1030 hPa
能见度10公里或以上
少量云层高于1200英尺, 塔状积云.
散云层高于1700英尺
多云层高于20000英尺
附近有阵雨

METAR: SKBO 061800Z 19014KT 9999 VCSH FEW012TCU SCT017 BKN200 19/09 A3041 NOSIG RMK TCU VSH/N

时间: 13:24 (18:24 UTC)

预报

该预报发布于1小时和54分钟前的16:30 UTC
预报有效从06日的 18点(UTC)到 07日的 18点(UTC)
风速10节,风向东南
能见度10公里或以上
散云层高于1700英尺
散云层高于9000英尺
短暂存在
从 06日的 19点(UTC)到 06日的 22点(UTC)
能見度: 5000
多云层高于1700英尺
毛毛雨
成为
从 07日的 00点(UTC)到 07日的 02点(UTC)
风速2节,风向多变
短暂存在
从 07日的 04点(UTC)到 07日的 09点(UTC)
多云层高于1500英尺
毛毛雨

TAF: SKBO 061630Z 0618/0718 14010KT 9999 SCT017 SCT090 TEMPO 0619/0622 5000 DZ BKN017 BECMG 0700/0702 VRB02KT TEMPO 0704/0709 DZ BKN015 TX21/0618Z TN11/0710Z

超过4000个机场的气象观测和天气预报(METAR&TAF报告)。

可查询的气象台以黄色和红色小点在地图上表示。

将鼠标移到小点上方,可查看气象台名称。

然后点击查看天气观测和预报。

如需切换地图:点击带黑十字的绿色按钮放大地图;点击带横线的绿色按钮缩小地图;或者点击绿色箭头查看邻近地区的地图。


METAR-TAF: